sensor_id;sensor_type;location;lat;lon;timestamp;P1;durP1;ratioP1;P2;durP2;ratioP2
61756;SDS011;57225;61.460;24.060;2023-12-22T00:01:03;25.30;;;8.80;;
61756;SDS011;57225;61.460;24.060;2023-12-22T00:03:48;24.77;;;8.80;;
61756;SDS011;57225;61.460;24.060;2023-12-22T00:06:34;19.40;;;8.32;;
61756;SDS011;57225;61.460;24.060;2023-12-22T00:09:18;24.73;;;8.77;;
61756;SDS011;57225;61.460;24.060;2023-12-22T00:12:03;24.85;;;9.57;;
61756;SDS011;57225;61.460;24.060;2023-12-22T00:14:47;22.38;;;8.88;;
61756;SDS011;57225;61.460;24.060;2023-12-22T00:17:32;20.92;;;8.45;;
61756;SDS011;57225;61.460;24.060;2023-12-22T00:20:17;21.60;;;8.35;;
61756;SDS011;57225;61.460;24.060;2023-12-22T00:23:03;19.58;;;7.82;;
61756;SDS011;57225;61.460;24.060;2023-12-22T00:25:47;19.60;;;8.18;;
61756;SDS011;57225;61.460;24.060;2023-12-22T00:28:32;20.65;;;7.95;;
61756;SDS011;57225;61.460;24.060;2023-12-22T00:31:16;23.23;;;9.23;;
61756;SDS011;57225;61.460;24.060;2023-12-22T00:34:01;20.75;;;8.82;;
61756;SDS011;57225;61.460;24.060;2023-12-22T00:36:46;22.20;;;8.27;;
61756;SDS011;57225;61.460;24.060;2023-12-22T00:39:30;23.13;;;8.27;;
61756;SDS011;57225;61.460;24.060;2023-12-22T00:42:14;19.50;;;9.30;;
61756;SDS011;57225;61.460;24.060;2023-12-22T00:44:59;19.17;;;7.93;;
61756;SDS011;57225;61.460;24.060;2023-12-22T00:47:43;18.77;;;8.20;;
61756;SDS011;57225;61.460;24.060;2023-12-22T00:50:27;21.42;;;8.85;;
61756;SDS011;57225;61.460;24.060;2023-12-22T00:53:12;19.98;;;8.25;;
61756;SDS011;57225;61.460;24.060;2023-12-22T00:55:59;23.70;;;7.80;;
61756;SDS011;57225;61.460;24.060;2023-12-22T00:58:45;20.05;;;8.27;;
61756;SDS011;57225;61.460;24.060;2023-12-22T01:01:29;18.95;;;8.25;;
61756;SDS011;57225;61.460;24.060;2023-12-22T01:04:14;23.20;;;8.90;;
61756;SDS011;57225;61.460;24.060;2023-12-22T01:06:58;20.42;;;8.48;;
61756;SDS011;57225;61.460;24.060;2023-12-22T01:09:43;24.10;;;8.65;;
61756;SDS011;57225;61.460;24.060;2023-12-22T01:12:28;19.98;;;8.82;;
61756;SDS011;57225;61.460;24.060;2023-12-22T01:15:12;20.75;;;7.90;;
61756;SDS011;57225;61.460;24.060;2023-12-22T01:17:57;19.73;;;8.43;;
61756;SDS011;57225;61.460;24.060;2023-12-22T01:20:42;21.73;;;8.55;;
61756;SDS011;57225;61.460;24.060;2023-12-22T01:23:26;18.45;;;8.15;;
61756;SDS011;57225;61.460;24.060;2023-12-22T01:26:11;22.08;;;8.50;;
61756;SDS011;57225;61.460;24.060;2023-12-22T01:28:56;17.10;;;7.90;;
61756;SDS011;57225;61.460;24.060;2023-12-22T01:31:40;17.00;;;8.45;;
61756;SDS011;57225;61.460;24.060;2023-12-22T01:34:25;21.85;;;8.32;;
61756;SDS011;57225;61.460;24.060;2023-12-22T01:37:09;22.65;;;8.13;;
61756;SDS011;57225;61.460;24.060;2023-12-22T01:39:53;21.15;;;7.82;;
61756;SDS011;57225;61.460;24.060;2023-12-22T01:42:38;19.17;;;8.45;;
61756;SDS011;57225;61.460;24.060;2023-12-22T01:45:23;21.95;;;8.75;;
61756;SDS011;57225;61.460;24.060;2023-12-22T01:48:08;24.63;;;9.27;;
61756;SDS011;57225;61.460;24.060;2023-12-22T01:50:53;23.25;;;8.82;;
61756;SDS011;57225;61.460;24.060;2023-12-22T01:53:39;22.05;;;8.88;;
61756;SDS011;57225;61.460;24.060;2023-12-22T01:56:24;26.88;;;9.50;;
61756;SDS011;57225;61.460;24.060;2023-12-22T01:59:09;22.75;;;9.10;;
61756;SDS011;57225;61.460;24.060;2023-12-22T02:01:54;20.27;;;9.07;;
61756;SDS011;57225;61.460;24.060;2023-12-22T02:04:38;20.42;;;8.45;;
61756;SDS011;57225;61.460;24.060;2023-12-22T02:07:23;23.58;;;9.52;;
61756;SDS011;57225;61.460;24.060;2023-12-22T02:10:08;23.58;;;9.57;;
61756;SDS011;57225;61.460;24.060;2023-12-22T02:12:53;27.13;;;9.57;;
61756;SDS011;57225;61.460;24.060;2023-12-22T02:15:38;20.73;;;9.00;;
61756;SDS011;57225;61.460;24.060;2023-12-22T02:18:24;19.85;;;8.27;;
61756;SDS011;57225;61.460;24.060;2023-12-22T02:21:14;19.95;;;8.88;;
61756;SDS011;57225;61.460;24.060;2023-12-22T02:23:58;24.67;;;8.80;;
61756;SDS011;57225;61.460;24.060;2023-12-22T02:26:44;22.73;;;9.25;;
61756;SDS011;57225;61.460;24.060;2023-12-22T02:29:36;20.05;;;8.65;;
61756;SDS011;57225;61.460;24.060;2023-12-22T02:32:29;24.90;;;9.60;;
61756;SDS011;57225;61.460;24.060;2023-12-22T02:35:17;22.27;;;9.15;;
61756;SDS011;57225;61.460;24.060;2023-12-22T02:38:07;23.38;;;9.30;;
61756;SDS011;57225;61.460;24.060;2023-12-22T02:40:53;19.67;;;8.80;;
61756;SDS011;57225;61.460;24.060;2023-12-22T02:43:38;20.48;;;8.55;;
61756;SDS011;57225;61.460;24.060;2023-12-22T02:46:23;22.13;;;9.50;;
61756;SDS011;57225;61.460;24.060;2023-12-22T02:49:07;21.42;;;9.15;;
61756;SDS011;57225;61.460;24.060;2023-12-22T02:51:52;25.00;;;9.45;;
61756;SDS011;57225;61.460;24.060;2023-12-22T02:54:36;21.70;;;9.43;;
61756;SDS011;57225;61.460;24.060;2023-12-22T02:57:23;19.52;;;8.57;;
61756;SDS011;57225;61.460;24.060;2023-12-22T03:00:08;18.95;;;8.65;;
61756;SDS011;57225;61.460;24.060;2023-12-22T03:02:52;27.13;;;9.48;;
61756;SDS011;57225;61.460;24.060;2023-12-22T03:05:37;18.83;;;8.63;;
61756;SDS011;57225;61.460;24.060;2023-12-22T03:08:22;18.15;;;7.78;;
61756;SDS011;57225;61.460;24.060;2023-12-22T03:11:06;23.55;;;9.32;;
61756;SDS011;57225;61.460;24.060;2023-12-22T03:13:50;19.10;;;8.15;;
61756;SDS011;57225;61.460;24.060;2023-12-22T03:16:35;22.45;;;9.13;;
61756;SDS011;57225;61.460;24.060;2023-12-22T03:19:19;23.77;;;8.65;;
61756;SDS011;57225;61.460;24.060;2023-12-22T03:22:07;20.73;;;8.55;;
61756;SDS011;57225;61.460;24.060;2023-12-22T03:24:51;25.25;;;8.35;;
61756;SDS011;57225;61.460;24.060;2023-12-22T03:27:36;21.90;;;8.73;;
61756;SDS011;57225;61.460;24.060;2023-12-22T03:30:20;21.23;;;8.10;;
61756;SDS011;57225;61.460;24.060;2023-12-22T03:33:04;21.70;;;9.15;;
61756;SDS011;57225;61.460;24.060;2023-12-22T03:35:50;18.42;;;8.20;;
61756;SDS011;57225;61.460;24.060;2023-12-22T03:38:35;23.65;;;9.00;;
61756;SDS011;57225;61.460;24.060;2023-12-22T03:41:19;19.33;;;8.30;;
61756;SDS011;57225;61.460;24.060;2023-12-22T03:44:04;20.25;;;8.88;;
61756;SDS011;57225;61.460;24.060;2023-12-22T03:46:49;19.17;;;8.52;;
61756;SDS011;57225;61.460;24.060;2023-12-22T03:49:35;21.45;;;7.97;;
61756;SDS011;57225;61.460;24.060;2023-12-22T03:52:20;18.45;;;8.23;;
61756;SDS011;57225;61.460;24.060;2023-12-22T03:55:04;20.67;;;9.05;;
61756;SDS011;57225;61.460;24.060;2023-12-22T03:57:49;22.00;;;7.97;;
61756;SDS011;57225;61.460;24.060;2023-12-22T04:00:34;20.10;;;8.23;;
61756;SDS011;57225;61.460;24.060;2023-12-22T04:03:18;22.30;;;8.40;;
61756;SDS011;57225;61.460;24.060;2023-12-22T04:06:03;16.25;;;7.78;;
61756;SDS011;57225;61.460;24.060;2023-12-22T04:08:48;18.77;;;8.40;;
61756;SDS011;57225;61.460;24.060;2023-12-22T04:11:32;21.33;;;8.18;;
61756;SDS011;57225;61.460;24.060;2023-12-22T04:14:18;19.98;;;7.82;;
61756;SDS011;57225;61.460;24.060;2023-12-22T04:17:03;19.92;;;7.95;;
61756;SDS011;57225;61.460;24.060;2023-12-22T04:19:47;19.33;;;7.53;;
61756;SDS011;57225;61.460;24.060;2023-12-22T04:22:31;16.45;;;7.00;;
61756;SDS011;57225;61.460;24.060;2023-12-22T04:25:16;19.65;;;7.47;;
61756;SDS011;57225;61.460;24.060;2023-12-22T04:28:01;17.75;;;7.90;;
61756;SDS011;57225;61.460;24.060;2023-12-22T04:30:46;20.95;;;8.20;;
61756;SDS011;57225;61.460;24.060;2023-12-22T04:33:30;22.63;;;8.15;;
61756;SDS011;57225;61.460;24.060;2023-12-22T04:36:15;17.67;;;7.82;;
61756;SDS011;57225;61.460;24.060;2023-12-22T04:38:59;18.45;;;7.05;;
61756;SDS011;57225;61.460;24.060;2023-12-22T04:41:44;14.98;;;7.20;;
61756;SDS011;57225;61.460;24.060;2023-12-22T04:44:28;18.50;;;6.60;;
61756;SDS011;57225;61.460;24.060;2023-12-22T04:47:13;16.10;;;7.35;;
61756;SDS011;57225;61.460;24.060;2023-12-22T04:49:58;15.50;;;7.03;;
61756;SDS011;57225;61.460;24.060;2023-12-22T04:52:43;16.63;;;7.07;;
61756;SDS011;57225;61.460;24.060;2023-12-22T04:55:27;16.58;;;7.60;;
61756;SDS011;57225;61.460;24.060;2023-12-22T04:58:12;15.60;;;6.72;;
61756;SDS011;57225;61.460;24.060;2023-12-22T05:00:56;16.98;;;6.75;;
61756;SDS011;57225;61.460;24.060;2023-12-22T05:03:41;13.68;;;6.85;;
61756;SDS011;57225;61.460;24.060;2023-12-22T05:06:26;15.85;;;7.00;;
61756;SDS011;57225;61.460;24.060;2023-12-22T05:09:10;16.73;;;7.35;;
61756;SDS011;57225;61.460;24.060;2023-12-22T05:11:55;19.52;;;7.43;;
61756;SDS011;57225;61.460;24.060;2023-12-22T05:14:40;14.88;;;6.80;;
61756;SDS011;57225;61.460;24.060;2023-12-22T05:17:24;16.77;;;7.25;;
61756;SDS011;57225;61.460;24.060;2023-12-22T05:20:09;17.48;;;6.97;;
61756;SDS011;57225;61.460;24.060;2023-12-22T05:22:53;17.10;;;7.65;;
61756;SDS011;57225;61.460;24.060;2023-12-22T05:25:38;16.00;;;7.00;;
61756;SDS011;57225;61.460;24.060;2023-12-22T05:28:24;18.88;;;7.10;;
61756;SDS011;57225;61.460;24.060;2023-12-22T05:31:08;15.43;;;7.32;;
61756;SDS011;57225;61.460;24.060;2023-12-22T05:33:53;19.48;;;7.93;;
61756;SDS011;57225;61.460;24.060;2023-12-22T05:36:37;17.13;;;7.15;;
61756;SDS011;57225;61.460;24.060;2023-12-22T05:39:22;16.63;;;7.15;;
61756;SDS011;57225;61.460;24.060;2023-12-22T05:42:06;16.92;;;7.82;;
61756;SDS011;57225;61.460;24.060;2023-12-22T05:44:51;16.25;;;7.13;;
61756;SDS011;57225;61.460;24.060;2023-12-22T05:47:35;17.52;;;6.75;;
61756;SDS011;57225;61.460;24.060;2023-12-22T05:50:19;19.45;;;7.70;;
61756;SDS011;57225;61.460;24.060;2023-12-22T05:53:04;16.17;;;7.38;;
61756;SDS011;57225;61.460;24.060;2023-12-22T05:55:48;14.82;;;6.97;;
61756;SDS011;57225;61.460;24.060;2023-12-22T05:58:33;17.65;;;7.25;;
61756;SDS011;57225;61.460;24.060;2023-12-22T06:01:17;17.75;;;7.38;;
61756;SDS011;57225;61.460;24.060;2023-12-22T06:04:02;15.98;;;7.47;;
61756;SDS011;57225;61.460;24.060;2023-12-22T06:06:47;17.45;;;7.40;;
61756;SDS011;57225;61.460;24.060;2023-12-22T06:09:32;19.73;;;7.82;;
61756;SDS011;57225;61.460;24.060;2023-12-22T06:12:16;16.27;;;6.90;;
61756;SDS011;57225;61.460;24.060;2023-12-22T06:15:00;16.77;;;7.25;;
61756;SDS011;57225;61.460;24.060;2023-12-22T06:17:45;17.50;;;7.57;;
61756;SDS011;57225;61.460;24.060;2023-12-22T06:20:29;15.70;;;7.32;;
61756;SDS011;57225;61.460;24.060;2023-12-22T06:23:14;19.73;;;7.22;;
61756;SDS011;57225;61.460;24.060;2023-12-22T06:25:58;18.20;;;7.00;;
61756;SDS011;57225;61.460;24.060;2023-12-22T06:28:43;13.20;;;6.13;;
61756;SDS011;57225;61.460;24.060;2023-12-22T06:31:27;16.02;;;7.40;;
61756;SDS011;57225;61.460;24.060;2023-12-22T06:34:12;14.98;;;6.88;;
61756;SDS011;57225;61.460;24.060;2023-12-22T06:36:56;18.13;;;7.20;;
61756;SDS011;57225;61.460;24.060;2023-12-22T06:39:40;13.85;;;7.22;;
61756;SDS011;57225;61.460;24.060;2023-12-22T06:42:25;16.67;;;6.68;;
61756;SDS011;57225;61.460;24.060;2023-12-22T06:45:09;16.42;;;6.90;;
61756;SDS011;57225;61.460;24.060;2023-12-22T06:47:54;15.85;;;7.03;;
61756;SDS011;57225;61.460;24.060;2023-12-22T06:50:39;12.43;;;6.07;;
61756;SDS011;57225;61.460;24.060;2023-12-22T06:53:23;13.32;;;6.07;;
61756;SDS011;57225;61.460;24.060;2023-12-22T06:56:18;22.73;;;6.70;;
61756;SDS011;57225;61.460;24.060;2023-12-22T06:59:03;15.25;;;7.25;;
61756;SDS011;57225;61.460;24.060;2023-12-22T07:01:48;14.52;;;6.90;;
61756;SDS011;57225;61.460;24.060;2023-12-22T07:07:52;14.88;;;7.15;;
61756;SDS011;57225;61.460;24.060;2023-12-22T07:10:36;15.07;;;6.70;;
61756;SDS011;57225;61.460;24.060;2023-12-22T07:13:21;13.95;;;6.53;;
61756;SDS011;57225;61.460;24.060;2023-12-22T07:16:05;15.32;;;6.35;;
61756;SDS011;57225;61.460;24.060;2023-12-22T07:18:50;14.15;;;6.50;;
61756;SDS011;57225;61.460;24.060;2023-12-22T07:21:35;16.90;;;7.22;;
61756;SDS011;57225;61.460;24.060;2023-12-22T07:24:19;16.35;;;6.57;;
61756;SDS011;57225;61.460;24.060;2023-12-22T07:27:04;14.43;;;6.57;;
61756;SDS011;57225;61.460;24.060;2023-12-22T07:29:49;15.65;;;6.55;;
61756;SDS011;57225;61.460;24.060;2023-12-22T07:32:34;15.18;;;6.78;;
61756;SDS011;57225;61.460;24.060;2023-12-22T07:35:18;15.25;;;6.72;;
61756;SDS011;57225;61.460;24.060;2023-12-22T07:38:03;15.90;;;7.05;;
61756;SDS011;57225;61.460;24.060;2023-12-22T07:40:47;16.90;;;7.25;;
61756;SDS011;57225;61.460;24.060;2023-12-22T07:43:32;16.27;;;6.93;;
61756;SDS011;57225;61.460;24.060;2023-12-22T07:46:17;15.10;;;7.32;;
61756;SDS011;57225;61.460;24.060;2023-12-22T07:49:02;13.38;;;6.47;;
61756;SDS011;57225;61.460;24.060;2023-12-22T07:51:47;12.45;;;6.28;;
61756;SDS011;57225;61.460;24.060;2023-12-22T07:54:32;14.55;;;6.53;;
61756;SDS011;57225;61.460;24.060;2023-12-22T07:57:16;14.75;;;6.22;;
61756;SDS011;57225;61.460;24.060;2023-12-22T08:00:01;16.45;;;7.40;;
61756;SDS011;57225;61.460;24.060;2023-12-22T08:02:47;19.65;;;7.22;;
61756;SDS011;57225;61.460;24.060;2023-12-22T08:05:31;16.20;;;6.88;;
61756;SDS011;57225;61.460;24.060;2023-12-22T08:08:17;20.17;;;7.15;;
61756;SDS011;57225;61.460;24.060;2023-12-22T08:11:01;15.85;;;6.05;;
61756;SDS011;57225;61.460;24.060;2023-12-22T08:13:46;14.43;;;7.25;;
61756;SDS011;57225;61.460;24.060;2023-12-22T08:16:31;16.65;;;6.90;;
61756;SDS011;57225;61.460;24.060;2023-12-22T08:19:16;14.50;;;6.40;;
61756;SDS011;57225;61.460;24.060;2023-12-22T08:22:01;15.07;;;6.57;;
61756;SDS011;57225;61.460;24.060;2023-12-22T08:24:45;18.73;;;7.25;;
61756;SDS011;57225;61.460;24.060;2023-12-22T08:27:31;16.38;;;7.13;;
61756;SDS011;57225;61.460;24.060;2023-12-22T08:30:16;17.50;;;6.82;;
61756;SDS011;57225;61.460;24.060;2023-12-22T08:33:00;16.80;;;7.00;;
61756;SDS011;57225;61.460;24.060;2023-12-22T08:35:45;12.93;;;6.20;;
61756;SDS011;57225;61.460;24.060;2023-12-22T08:38:29;16.60;;;7.15;;
61756;SDS011;57225;61.460;24.060;2023-12-22T08:41:14;21.15;;;7.38;;
61756;SDS011;57225;61.460;24.060;2023-12-22T08:43:58;17.70;;;7.53;;
61756;SDS011;57225;61.460;24.060;2023-12-22T08:46:43;16.88;;;6.45;;
61756;SDS011;57225;61.460;24.060;2023-12-22T08:49:27;15.98;;;6.85;;
61756;SDS011;57225;61.460;24.060;2023-12-22T08:52:12;18.00;;;7.70;;
61756;SDS011;57225;61.460;24.060;2023-12-22T08:54:57;16.17;;;7.35;;
61756;SDS011;57225;61.460;24.060;2023-12-22T08:57:41;16.05;;;7.22;;
61756;SDS011;57225;61.460;24.060;2023-12-22T09:00:26;16.42;;;6.88;;
61756;SDS011;57225;61.460;24.060;2023-12-22T09:03:10;16.77;;;7.10;;
61756;SDS011;57225;61.460;24.060;2023-12-22T09:05:55;16.38;;;6.75;;
61756;SDS011;57225;61.460;24.060;2023-12-22T09:08:39;17.55;;;6.55;;
61756;SDS011;57225;61.460;24.060;2023-12-22T09:11:24;19.38;;;7.28;;
61756;SDS011;57225;61.460;24.060;2023-12-22T09:14:09;20.77;;;7.85;;
61756;SDS011;57225;61.460;24.060;2023-12-22T09:16:53;18.35;;;6.90;;
61756;SDS011;57225;61.460;24.060;2023-12-22T09:19:39;18.05;;;7.32;;
61756;SDS011;57225;61.460;24.060;2023-12-22T09:22:24;15.88;;;6.75;;
61756;SDS011;57225;61.460;24.060;2023-12-22T09:25:08;19.00;;;7.47;;
61756;SDS011;57225;61.460;24.060;2023-12-22T09:27:53;16.65;;;7.28;;
61756;SDS011;57225;61.460;24.060;2023-12-22T09:30:46;17.05;;;7.25;;
61756;SDS011;57225;61.460;24.060;2023-12-22T09:33:31;19.33;;;7.40;;
61756;SDS011;57225;61.460;24.060;2023-12-22T09:36:16;17.95;;;7.47;;
61756;SDS011;57225;61.460;24.060;2023-12-22T09:39:01;17.63;;;6.40;;
61756;SDS011;57225;61.460;24.060;2023-12-22T09:41:49;18.45;;;7.38;;
61756;SDS011;57225;61.460;24.060;2023-12-22T09:44:34;18.33;;;7.73;;
61756;SDS011;57225;61.460;24.060;2023-12-22T09:47:20;20.13;;;7.13;;
61756;SDS011;57225;61.460;24.060;2023-12-22T09:50:06;20.73;;;7.88;;
61756;SDS011;57225;61.460;24.060;2023-12-22T09:52:53;19.38;;;7.45;;
61756;SDS011;57225;61.460;24.060;2023-12-22T09:55:38;19.05;;;7.75;;
61756;SDS011;57225;61.460;24.060;2023-12-22T09:58:25;18.60;;;7.05;;
61756;SDS011;57225;61.460;24.060;2023-12-22T10:01:10;18.65;;;7.60;;
61756;SDS011;57225;61.460;24.060;2023-12-22T10:03:54;17.73;;;7.60;;
61756;SDS011;57225;61.460;24.060;2023-12-22T10:06:38;16.75;;;7.13;;
61756;SDS011;57225;61.460;24.060;2023-12-22T10:09:23;14.52;;;6.97;;
61756;SDS011;57225;61.460;24.060;2023-12-22T10:12:09;16.73;;;6.70;;
61756;SDS011;57225;61.460;24.060;2023-12-22T10:14:55;15.82;;;6.47;;
61756;SDS011;57225;61.460;24.060;2023-12-22T10:17:40;16.80;;;7.00;;
61756;SDS011;57225;61.460;24.060;2023-12-22T10:20:26;16.92;;;6.65;;
61756;SDS011;57225;61.460;24.060;2023-12-22T10:23:10;15.45;;;6.47;;
61756;SDS011;57225;61.460;24.060;2023-12-22T10:25:56;15.80;;;6.93;;
61756;SDS011;57225;61.460;24.060;2023-12-22T10:28:42;17.10;;;6.70;;
61756;SDS011;57225;61.460;24.060;2023-12-22T10:31:26;18.83;;;6.75;;
61756;SDS011;57225;61.460;24.060;2023-12-22T10:34:11;16.90;;;6.43;;
61756;SDS011;57225;61.460;24.060;2023-12-22T10:36:56;18.02;;;6.88;;
61756;SDS011;57225;61.460;24.060;2023-12-22T10:39:40;16.30;;;6.22;;
61756;SDS011;57225;61.460;24.060;2023-12-22T10:42:25;22.85;;;7.50;;
61756;SDS011;57225;61.460;24.060;2023-12-22T10:45:09;16.88;;;6.28;;
61756;SDS011;57225;61.460;24.060;2023-12-22T10:47:54;15.80;;;6.50;;
61756;SDS011;57225;61.460;24.060;2023-12-22T10:50:39;14.43;;;6.40;;
61756;SDS011;57225;61.460;24.060;2023-12-22T10:53:25;16.10;;;6.25;;
61756;SDS011;57225;61.460;24.060;2023-12-22T10:56:10;19.10;;;7.18;;
61756;SDS011;57225;61.460;24.060;2023-12-22T10:58:55;20.05;;;6.70;;
61756;SDS011;57225;61.460;24.060;2023-12-22T11:01:42;16.23;;;7.10;;
61756;SDS011;57225;61.460;24.060;2023-12-22T11:04:30;15.20;;;6.60;;
61756;SDS011;57225;61.460;24.060;2023-12-22T11:07:18;17.50;;;7.80;;
61756;SDS011;57225;61.460;24.060;2023-12-22T11:12:51;13.68;;;6.15;;
61756;SDS011;57225;61.460;24.060;2023-12-22T11:15:36;14.32;;;6.72;;
61756;SDS011;57225;61.460;24.060;2023-12-22T11:18:23;17.05;;;6.82;;
61756;SDS011;57225;61.460;24.060;2023-12-22T11:21:08;17.00;;;6.95;;
61756;SDS011;57225;61.460;24.060;2023-12-22T11:23:55;18.35;;;7.55;;
61756;SDS011;57225;61.460;24.060;2023-12-22T11:26:41;15.88;;;6.57;;
61756;SDS011;57225;61.460;24.060;2023-12-22T11:29:28;19.55;;;7.63;;
61756;SDS011;57225;61.460;24.060;2023-12-22T11:32:14;17.88;;;6.75;;
61756;SDS011;57225;61.460;24.060;2023-12-22T11:35:00;15.63;;;6.82;;
61756;SDS011;57225;61.460;24.060;2023-12-22T11:37:46;15.43;;;7.05;;
61756;SDS011;57225;61.460;24.060;2023-12-22T11:40:32;15.48;;;6.55;;
61756;SDS011;57225;61.460;24.060;2023-12-22T11:43:16;18.00;;;7.75;;
61756;SDS011;57225;61.460;24.060;2023-12-22T11:46:05;16.83;;;7.43;;
61756;SDS011;57225;61.460;24.060;2023-12-22T11:48:50;20.55;;;7.72;;
61756;SDS011;57225;61.460;24.060;2023-12-22T11:51:36;16.38;;;7.05;;
61756;SDS011;57225;61.460;24.060;2023-12-22T11:57:34;17.70;;;7.75;;
61756;SDS011;57225;61.460;24.060;2023-12-22T12:03:07;17.50;;;7.72;;
61756;SDS011;57225;61.460;24.060;2023-12-22T12:06:02;18.90;;;7.18;;
61756;SDS011;57225;61.460;24.060;2023-12-22T12:09:13;18.13;;;7.45;;
61756;SDS011;57225;61.460;24.060;2023-12-22T12:14:48;17.33;;;7.30;;
61756;SDS011;57225;61.460;24.060;2023-12-22T12:17:41;20.83;;;7.82;;
61756;SDS011;57225;61.460;24.060;2023-12-22T12:20:26;17.73;;;7.60;;
61756;SDS011;57225;61.460;24.060;2023-12-22T12:23:11;18.77;;;7.25;;
61756;SDS011;57225;61.460;24.060;2023-12-22T12:25:56;23.83;;;7.93;;
61756;SDS011;57225;61.460;24.060;2023-12-22T12:28:40;21.67;;;6.75;;
61756;SDS011;57225;61.460;24.060;2023-12-22T12:31:36;18.88;;;6.93;;
61756;SDS011;57225;61.460;24.060;2023-12-22T12:34:25;20.63;;;7.18;;
61756;SDS011;57225;61.460;24.060;2023-12-22T12:37:10;17.42;;;7.53;;
61756;SDS011;57225;61.460;24.060;2023-12-22T12:39:57;18.35;;;6.93;;
61756;SDS011;57225;61.460;24.060;2023-12-22T12:42:47;15.93;;;6.35;;
61756;SDS011;57225;61.460;24.060;2023-12-22T12:45:37;21.67;;;7.68;;
61756;SDS011;57225;61.460;24.060;2023-12-22T12:48:22;18.58;;;7.10;;
61756;SDS011;57225;61.460;24.060;2023-12-22T12:51:06;18.77;;;7.30;;
61756;SDS011;57225;61.460;24.060;2023-12-22T12:53:51;16.45;;;7.55;;
61756;SDS011;57225;61.460;24.060;2023-12-22T12:56:45;16.38;;;6.93;;
61756;SDS011;57225;61.460;24.060;2023-12-22T12:59:30;15.05;;;6.18;;
61756;SDS011;57225;61.460;24.060;2023-12-22T13:02:15;18.40;;;6.75;;
61756;SDS011;57225;61.460;24.060;2023-12-22T13:05:01;18.58;;;6.88;;
61756;SDS011;57225;61.460;24.060;2023-12-22T13:07:48;18.73;;;6.50;;
61756;SDS011;57225;61.460;24.060;2023-12-22T13:10:32;16.98;;;6.68;;
61756;SDS011;57225;61.460;24.060;2023-12-22T13:13:17;19.23;;;7.47;;
61756;SDS011;57225;61.460;24.060;2023-12-22T13:16:01;20.38;;;6.63;;
61756;SDS011;57225;61.460;24.060;2023-12-22T13:18:46;17.70;;;6.50;;
61756;SDS011;57225;61.460;24.060;2023-12-22T13:21:31;13.88;;;6.30;;
61756;SDS011;57225;61.460;24.060;2023-12-22T13:24:16;16.75;;;6.60;;
61756;SDS011;57225;61.460;24.060;2023-12-22T13:27:02;17.52;;;6.30;;
61756;SDS011;57225;61.460;24.060;2023-12-22T13:29:49;16.33;;;6.43;;
61756;SDS011;57225;61.460;24.060;2023-12-22T13:32:36;17.80;;;6.57;;
61756;SDS011;57225;61.460;24.060;2023-12-22T13:35:22;14.52;;;5.95;;
61756;SDS011;57225;61.460;24.060;2023-12-22T13:38:08;17.13;;;6.25;;
61756;SDS011;57225;61.460;24.060;2023-12-22T13:40:53;17.05;;;6.82;;
61756;SDS011;57225;61.460;24.060;2023-12-22T13:43:37;12.38;;;5.60;;
61756;SDS011;57225;61.460;24.060;2023-12-22T13:46:22;16.48;;;5.80;;
61756;SDS011;57225;61.460;24.060;2023-12-22T13:49:11;14.48;;;6.15;;
61756;SDS011;57225;61.460;24.060;2023-12-22T13:51:55;15.88;;;6.45;;
61756;SDS011;57225;61.460;24.060;2023-12-22T13:54:40;15.48;;;6.05;;
61756;SDS011;57225;61.460;24.060;2023-12-22T13:57:24;15.20;;;5.85;;
61756;SDS011;57225;61.460;24.060;2023-12-22T14:03:03;14.73;;;5.47;;
61756;SDS011;57225;61.460;24.060;2023-12-22T14:05:47;17.40;;;6.10;;
61756;SDS011;57225;61.460;24.060;2023-12-22T14:08:33;14.60;;;6.05;;
61756;SDS011;57225;61.460;24.060;2023-12-22T14:11:17;13.70;;;5.30;;
61756;SDS011;57225;61.460;24.060;2023-12-22T14:14:02;14.48;;;5.68;;
61756;SDS011;57225;61.460;24.060;2023-12-22T14:16:46;12.52;;;5.45;;
61756;SDS011;57225;61.460;24.060;2023-12-22T14:19:30;16.00;;;5.75;;
61756;SDS011;57225;61.460;24.060;2023-12-22T14:22:15;13.02;;;5.30;;
61756;SDS011;57225;61.460;24.060;2023-12-22T14:25:00;11.38;;;5.20;;
61756;SDS011;57225;61.460;24.060;2023-12-22T14:27:44;12.02;;;4.97;;
61756;SDS011;57225;61.460;24.060;2023-12-22T14:30:28;13.45;;;5.13;;
61756;SDS011;57225;61.460;24.060;2023-12-22T14:33:13;16.17;;;5.88;;
61756;SDS011;57225;61.460;24.060;2023-12-22T14:35:58;12.00;;;5.20;;
61756;SDS011;57225;61.460;24.060;2023-12-22T14:38:42;13.52;;;5.43;;
61756;SDS011;57225;61.460;24.060;2023-12-22T14:41:27;13.57;;;5.55;;
61756;SDS011;57225;61.460;24.060;2023-12-22T14:44:11;11.00;;;4.82;;
61756;SDS011;57225;61.460;24.060;2023-12-22T14:46:56;15.95;;;6.40;;
61756;SDS011;57225;61.460;24.060;2023-12-22T14:49:40;14.38;;;5.43;;
61756;SDS011;57225;61.460;24.060;2023-12-22T14:52:25;10.85;;;5.18;;
61756;SDS011;57225;61.460;24.060;2023-12-22T14:55:09;12.02;;;5.32;;
61756;SDS011;57225;61.460;24.060;2023-12-22T14:57:53;11.63;;;4.82;;
61756;SDS011;57225;61.460;24.060;2023-12-22T15:00:38;10.50;;;4.53;;
61756;SDS011;57225;61.460;24.060;2023-12-22T15:03:22;13.30;;;5.22;;
61756;SDS011;57225;61.460;24.060;2023-12-22T15:06:07;11.45;;;4.72;;
61756;SDS011;57225;61.460;24.060;2023-12-22T15:08:51;11.60;;;4.78;;
61756;SDS011;57225;61.460;24.060;2023-12-22T15:11:43;11.63;;;4.70;;
61756;SDS011;57225;61.460;24.060;2023-12-22T15:14:28;13.07;;;5.05;;
61756;SDS011;57225;61.460;24.060;2023-12-22T15:17:13;11.23;;;5.38;;
61756;SDS011;57225;61.460;24.060;2023-12-22T15:19:59;12.38;;;4.60;;
61756;SDS011;57225;61.460;24.060;2023-12-22T15:22:47;12.63;;;5.00;;
61756;SDS011;57225;61.460;24.060;2023-12-22T15:25:31;11.93;;;5.35;;
61756;SDS011;57225;61.460;24.060;2023-12-22T15:28:16;11.13;;;4.80;;
61756;SDS011;57225;61.460;24.060;2023-12-22T15:31:00;13.73;;;5.38;;
61756;SDS011;57225;61.460;24.060;2023-12-22T15:33:45;11.07;;;4.70;;
61756;SDS011;57225;61.460;24.060;2023-12-22T15:36:29;10.48;;;4.43;;
61756;SDS011;57225;61.460;24.060;2023-12-22T15:39:14;9.35;;;4.40;;
61756;SDS011;57225;61.460;24.060;2023-12-22T15:41:58;9.52;;;4.18;;
61756;SDS011;57225;61.460;24.060;2023-12-22T15:44:43;10.10;;;4.68;;
61756;SDS011;57225;61.460;24.060;2023-12-22T15:47:27;11.40;;;4.85;;
61756;SDS011;57225;61.460;24.060;2023-12-22T15:50:12;12.05;;;5.22;;
61756;SDS011;57225;61.460;24.060;2023-12-22T15:52:56;12.23;;;4.72;;
61756;SDS011;57225;61.460;24.060;2023-12-22T15:55:41;10.30;;;4.35;;
61756;SDS011;57225;61.460;24.060;2023-12-22T15:58:25;10.82;;;5.03;;
61756;SDS011;57225;61.460;24.060;2023-12-22T16:01:10;10.85;;;4.90;;
61756;SDS011;57225;61.460;24.060;2023-12-22T16:04:00;14.60;;;5.25;;
61756;SDS011;57225;61.460;24.060;2023-12-22T16:06:45;9.68;;;4.70;;
61756;SDS011;57225;61.460;24.060;2023-12-22T16:09:29;11.90;;;4.90;;
61756;SDS011;57225;61.460;24.060;2023-12-22T16:12:18;12.90;;;4.93;;
61756;SDS011;57225;61.460;24.060;2023-12-22T16:15:03;11.43;;;4.57;;
61756;SDS011;57225;61.460;24.060;2023-12-22T16:17:47;12.07;;;4.65;;
61756;SDS011;57225;61.460;24.060;2023-12-22T16:20:35;11.20;;;4.88;;
61756;SDS011;57225;61.460;24.060;2023-12-22T16:23:21;12.00;;;5.10;;